Aeroporto :
LOGIN :

Iscrizione | Disclaimer

   EN    FR    IT 

 










Sommario :    VFR   VFR Marginale   IFR   IFR Intensivo   IFR Molto Intensivo
Visibilità : 
Base nubi : 
>= 8 km
>= 3000ft
5 / 8 km
1000 / 3000 ft
1500m / 5 km
500 / 1000 ft
800 / 1500m
200 / 500 ft
< 800m
< 200 ft
Simboli :   Temporali  Nebbia  Neve Forte  Precipitazioni Forti  Vento > 20 kt
SIGMETs :   Varie  Temporali  Ghiacco  Turbolenza  Onda orograficha  Ceneri Vulcaniche






- Altitudine del aeroporto : 1079 ft


ETIK - Illesheim Air Base

ULTIMO METAR :
  • 140556Z AUTO 00000KT 9999 CLR 08/08 A3003 RMK AO2 SLP168 T00800080 10140 20080 51007 $

METARs OBSOLETI :
  • 140456Z AUTO 00000KT 9999 CLR 09/09 A3002 RMK AO2 SLP163 T00900090 $
  • 140356Z AUTO 00000KT 9999 CLR 09/09 A3002 RMK AO2 SLP162 T00880088 $

TAF TAF ETIK
Valido dal 14 a 06 ore il 15 a 12 ore UTC


140610Z 1406/1512 VRB06KT 9999 SKC QNH2985INS
BECMG 1500/1501 VRB06KT 8000 BR FEW030 QNH2978INS
BECMG 1509/1510 13009KT 9999 NSW SKC QNH2974INS TX22/1412Z TN07/1406Z



MetMap, La meteo Aeronautica in un colpo d'occhio ! - Copyright ORBIFLY Dicembre 2007 - Disclaimer

ORBIFLY MET'MAP TEAM :

Programmazione e sviluppo : Alexandra Zaïnal
Concezione e sviluppo : Baudouin d'Aumeries
Co-Programmazione e sviluppo : Marc-Olivier Méhu
Supporto tecnico e logistico : Manuel Goepfert
Aiuto per la traduzione : Arnaldo La Scala

Contatto : metmap@orbifly.com




FONTI E CREDITI :

   NOAA